sensor_id;sensor_type;location;lat;lon;timestamp;P1;durP1;ratioP1;P2;durP2;ratioP2
28834;SDS011;15969;51.536;11.884;2023-03-13T00:01:31;11.03;;;4.80;;
28834;SDS011;15969;51.536;11.884;2023-03-13T00:04:00;10.53;;;5.03;;
28834;SDS011;15969;51.536;11.884;2023-03-13T00:06:26;10.87;;;4.27;;
28834;SDS011;15969;51.536;11.884;2023-03-13T00:08:56;12.23;;;3.90;;
28834;SDS011;15969;51.536;11.884;2023-03-13T00:11:22;13.87;;;4.53;;
28834;SDS011;15969;51.536;11.884;2023-03-13T00:13:48;15.80;;;4.50;;
28834;SDS011;15969;51.536;11.884;2023-03-13T00:16:21;12.33;;;4.13;;
28834;SDS011;15969;51.536;11.884;2023-03-13T00:18:49;11.47;;;3.43;;
28834;SDS011;15969;51.536;11.884;2023-03-13T00:21:17;12.73;;;4.37;;
28834;SDS011;15969;51.536;11.884;2023-03-13T00:23:46;13.60;;;4.33;;
28834;SDS011;15969;51.536;11.884;2023-03-13T00:26:14;13.77;;;4.37;;
28834;SDS011;15969;51.536;11.884;2023-03-13T00:28:43;11.17;;;4.10;;
28834;SDS011;15969;51.536;11.884;2023-03-13T00:31:11;10.33;;;4.07;;
28834;SDS011;15969;51.536;11.884;2023-03-13T00:33:49;17.00;;;4.53;;
28834;SDS011;15969;51.536;11.884;2023-03-13T00:36:21;14.77;;;3.97;;
28834;SDS011;15969;51.536;11.884;2023-03-13T00:38:53;10.13;;;4.23;;
28834;SDS011;15969;51.536;11.884;2023-03-13T00:41:21;12.97;;;4.40;;
28834;SDS011;15969;51.536;11.884;2023-03-13T00:43:52;14.33;;;4.70;;
28834;SDS011;15969;51.536;11.884;2023-03-13T00:46:19;14.30;;;4.20;;
28834;SDS011;15969;51.536;11.884;2023-03-13T00:48:47;13.60;;;3.70;;
28834;SDS011;15969;51.536;11.884;2023-03-13T00:51:13;14.40;;;4.37;;
28834;SDS011;15969;51.536;11.884;2023-03-13T00:53:41;17.17;;;4.73;;
28834;SDS011;15969;51.536;11.884;2023-03-13T00:56:08;11.77;;;4.27;;
28834;SDS011;15969;51.536;11.884;2023-03-13T00:58:37;14.53;;;4.00;;
28834;SDS011;15969;51.536;11.884;2023-03-13T01:01:06;18.07;;;4.10;;
28834;SDS011;15969;51.536;11.884;2023-03-13T01:03:33;13.87;;;4.27;;
28834;SDS011;15969;51.536;11.884;2023-03-13T01:06:00;19.90;;;3.93;;
28834;SDS011;15969;51.536;11.884;2023-03-13T01:08:28;14.83;;;4.67;;
28834;SDS011;15969;51.536;11.884;2023-03-13T01:11:04;13.67;;;3.97;;
28834;SDS011;15969;51.536;11.884;2023-03-13T01:13:36;17.57;;;4.20;;
28834;SDS011;15969;51.536;11.884;2023-03-13T01:16:02;19.23;;;4.30;;
28834;SDS011;15969;51.536;11.884;2023-03-13T01:18:49;13.53;;;3.93;;
28834;SDS011;15969;51.536;11.884;2023-03-13T01:21:17;19.83;;;4.90;;
28834;SDS011;15969;51.536;11.884;2023-03-13T01:23:45;22.33;;;4.27;;
28834;SDS011;15969;51.536;11.884;2023-03-13T01:26:12;18.67;;;4.63;;
28834;SDS011;15969;51.536;11.884;2023-03-13T01:28:37;13.83;;;4.43;;
28834;SDS011;15969;51.536;11.884;2023-03-13T01:31:13;13.40;;;4.00;;
28834;SDS011;15969;51.536;11.884;2023-03-13T01:33:46;12.10;;;4.40;;
28834;SDS011;15969;51.536;11.884;2023-03-13T01:36:13;14.80;;;4.03;;
28834;SDS011;15969;51.536;11.884;2023-03-13T01:38:39;14.53;;;4.40;;
28834;SDS011;15969;51.536;11.884;2023-03-13T01:41:05;15.90;;;4.27;;
28834;SDS011;15969;51.536;11.884;2023-03-13T01:43:33;19.70;;;4.50;;
28834;SDS011;15969;51.536;11.884;2023-03-13T01:48:42;15.50;;;3.93;;
28834;SDS011;15969;51.536;11.884;2023-03-13T01:53:55;17.13;;;4.83;;
28834;SDS011;15969;51.536;11.884;2023-03-13T01:56:34;10.77;;;4.37;;
28834;SDS011;15969;51.536;11.884;2023-03-13T01:59:16;16.07;;;5.00;;
28834;SDS011;15969;51.536;11.884;2023-03-13T02:01:50;13.13;;;4.10;;
28834;SDS011;15969;51.536;11.884;2023-03-13T02:04:19;12.90;;;4.37;;
28834;SDS011;15969;51.536;11.884;2023-03-13T02:06:48;11.97;;;3.93;;
28834;SDS011;15969;51.536;11.884;2023-03-13T02:09:20;16.70;;;4.53;;
28834;SDS011;15969;51.536;11.884;2023-03-13T02:11:54;13.07;;;3.90;;
28834;SDS011;15969;51.536;11.884;2023-03-13T02:14:37;14.70;;;4.00;;
28834;SDS011;15969;51.536;11.884;2023-03-13T02:17:06;14.77;;;4.87;;
28834;SDS011;15969;51.536;11.884;2023-03-13T02:22:27;12.60;;;4.57;;
28834;SDS011;15969;51.536;11.884;2023-03-13T02:25:39;15.23;;;4.07;;
28834;SDS011;15969;51.536;11.884;2023-03-13T02:28:13;12.80;;;4.53;;
28834;SDS011;15969;51.536;11.884;2023-03-13T02:30:59;14.67;;;4.20;;
28834;SDS011;15969;51.536;11.884;2023-03-13T02:33:26;19.03;;;4.17;;
28834;SDS011;15969;51.536;11.884;2023-03-13T02:35:55;14.83;;;4.20;;
28834;SDS011;15969;51.536;11.884;2023-03-13T02:38:24;15.57;;;3.93;;
28834;SDS011;15969;51.536;11.884;2023-03-13T02:40:52;10.37;;;3.93;;
28834;SDS011;15969;51.536;11.884;2023-03-13T02:43:29;10.10;;;3.30;;
28834;SDS011;15969;51.536;11.884;2023-03-13T02:48:30;16.23;;;4.03;;
28834;SDS011;15969;51.536;11.884;2023-03-13T02:51:04;14.27;;;3.57;;
28834;SDS011;15969;51.536;11.884;2023-03-13T02:53:56;12.57;;;3.70;;
28834;SDS011;15969;51.536;11.884;2023-03-13T02:56:25;15.33;;;4.30;;
28834;SDS011;15969;51.536;11.884;2023-03-13T02:58:52;18.77;;;4.03;;
28834;SDS011;15969;51.536;11.884;2023-03-13T03:01:17;15.70;;;3.47;;
28834;SDS011;15969;51.536;11.884;2023-03-13T03:03:43;11.93;;;3.90;;
28834;SDS011;15969;51.536;11.884;2023-03-13T03:06:09;11.10;;;3.60;;
28834;SDS011;15969;51.536;11.884;2023-03-13T03:08:34;19.97;;;4.07;;
28834;SDS011;15969;51.536;11.884;2023-03-13T03:11:00;15.23;;;4.17;;
28834;SDS011;15969;51.536;11.884;2023-03-13T03:13:26;18.87;;;4.30;;
28834;SDS011;15969;51.536;11.884;2023-03-13T03:15:52;12.00;;;4.30;;
28834;SDS011;15969;51.536;11.884;2023-03-13T03:18:18;13.60;;;3.80;;
28834;SDS011;15969;51.536;11.884;2023-03-13T03:20:44;15.77;;;4.57;;
28834;SDS011;15969;51.536;11.884;2023-03-13T03:23:09;15.00;;;3.83;;
28834;SDS011;15969;51.536;11.884;2023-03-13T03:25:35;12.10;;;3.93;;
28834;SDS011;15969;51.536;11.884;2023-03-13T03:28:01;16.27;;;3.87;;
28834;SDS011;15969;51.536;11.884;2023-03-13T03:30:26;15.57;;;3.97;;
28834;SDS011;15969;51.536;11.884;2023-03-13T03:32:52;14.03;;;3.60;;
28834;SDS011;15969;51.536;11.884;2023-03-13T03:35:18;14.07;;;4.83;;
28834;SDS011;15969;51.536;11.884;2023-03-13T03:37:43;15.20;;;4.23;;
28834;SDS011;15969;51.536;11.884;2023-03-13T03:40:09;16.30;;;4.60;;
28834;SDS011;15969;51.536;11.884;2023-03-13T03:42:36;11.73;;;3.73;;
28834;SDS011;15969;51.536;11.884;2023-03-13T03:45:02;11.77;;;3.97;;
28834;SDS011;15969;51.536;11.884;2023-03-13T03:47:27;11.50;;;3.33;;
28834;SDS011;15969;51.536;11.884;2023-03-13T03:49:53;12.20;;;3.43;;
28834;SDS011;15969;51.536;11.884;2023-03-13T03:52:19;18.63;;;4.27;;
28834;SDS011;15969;51.536;11.884;2023-03-13T03:54:44;15.07;;;3.90;;
28834;SDS011;15969;51.536;11.884;2023-03-13T03:57:10;14.77;;;4.03;;
28834;SDS011;15969;51.536;11.884;2023-03-13T03:59:36;13.80;;;5.00;;
28834;SDS011;15969;51.536;11.884;2023-03-13T04:02:01;11.60;;;3.80;;
28834;SDS011;15969;51.536;11.884;2023-03-13T04:04:27;15.63;;;4.17;;
28834;SDS011;15969;51.536;11.884;2023-03-13T04:06:53;15.70;;;4.40;;
28834;SDS011;15969;51.536;11.884;2023-03-13T04:09:19;15.30;;;3.63;;
28834;SDS011;15969;51.536;11.884;2023-03-13T04:11:44;18.87;;;3.80;;
28834;SDS011;15969;51.536;11.884;2023-03-13T04:14:10;13.77;;;2.97;;
28834;SDS011;15969;51.536;11.884;2023-03-13T04:16:36;16.73;;;3.67;;
28834;SDS011;15969;51.536;11.884;2023-03-13T04:19:01;12.33;;;3.27;;
28834;SDS011;15969;51.536;11.884;2023-03-13T04:21:27;15.77;;;3.73;;
28834;SDS011;15969;51.536;11.884;2023-03-13T04:23:53;14.20;;;3.83;;
28834;SDS011;15969;51.536;11.884;2023-03-13T04:26:18;11.07;;;3.30;;
28834;SDS011;15969;51.536;11.884;2023-03-13T04:28:44;18.00;;;4.30;;
28834;SDS011;15969;51.536;11.884;2023-03-13T04:31:10;16.47;;;4.43;;
28834;SDS011;15969;51.536;11.884;2023-03-13T04:33:35;16.13;;;4.30;;
28834;SDS011;15969;51.536;11.884;2023-03-13T04:36:01;17.53;;;4.17;;
28834;SDS011;15969;51.536;11.884;2023-03-13T04:38:27;17.13;;;3.47;;
28834;SDS011;15969;51.536;11.884;2023-03-13T04:40:53;13.50;;;3.73;;
28834;SDS011;15969;51.536;11.884;2023-03-13T04:43:18;15.33;;;4.07;;
28834;SDS011;15969;51.536;11.884;2023-03-13T04:45:44;15.00;;;4.33;;
28834;SDS011;15969;51.536;11.884;2023-03-13T04:48:10;15.33;;;3.83;;
28834;SDS011;15969;51.536;11.884;2023-03-13T04:50:36;20.50;;;3.77;;
28834;SDS011;15969;51.536;11.884;2023-03-13T04:53:02;13.03;;;4.23;;
28834;SDS011;15969;51.536;11.884;2023-03-13T04:55:27;18.83;;;3.77;;
28834;SDS011;15969;51.536;11.884;2023-03-13T04:57:53;11.77;;;4.37;;
28834;SDS011;15969;51.536;11.884;2023-03-13T05:00:19;16.07;;;3.97;;
28834;SDS011;15969;51.536;11.884;2023-03-13T05:02:45;11.23;;;3.80;;
28834;SDS011;15969;51.536;11.884;2023-03-13T05:05:11;11.70;;;3.57;;
28834;SDS011;15969;51.536;11.884;2023-03-13T05:07:36;16.93;;;4.00;;
28834;SDS011;15969;51.536;11.884;2023-03-13T05:10:02;12.67;;;3.70;;
28834;SDS011;15969;51.536;11.884;2023-03-13T05:12:28;16.73;;;3.90;;
28834;SDS011;15969;51.536;11.884;2023-03-13T05:14:54;12.73;;;3.43;;
28834;SDS011;15969;51.536;11.884;2023-03-13T05:17:19;12.17;;;3.77;;
28834;SDS011;15969;51.536;11.884;2023-03-13T05:19:45;17.70;;;4.17;;
28834;SDS011;15969;51.536;11.884;2023-03-13T05:22:11;18.73;;;4.00;;
28834;SDS011;15969;51.536;11.884;2023-03-13T05:24:36;12.37;;;3.67;;
28834;SDS011;15969;51.536;11.884;2023-03-13T05:27:02;14.60;;;3.53;;
28834;SDS011;15969;51.536;11.884;2023-03-13T05:29:28;12.37;;;3.37;;
28834;SDS011;15969;51.536;11.884;2023-03-13T05:31:54;14.73;;;4.03;;
28834;SDS011;15969;51.536;11.884;2023-03-13T05:34:19;13.63;;;3.77;;
28834;SDS011;15969;51.536;11.884;2023-03-13T05:36:45;13.20;;;4.60;;
28834;SDS011;15969;51.536;11.884;2023-03-13T05:39:11;18.07;;;3.93;;
28834;SDS011;15969;51.536;11.884;2023-03-13T05:41:36;15.00;;;4.07;;
28834;SDS011;15969;51.536;11.884;2023-03-13T05:44:02;11.07;;;3.90;;
28834;SDS011;15969;51.536;11.884;2023-03-13T05:46:28;13.27;;;4.03;;
28834;SDS011;15969;51.536;11.884;2023-03-13T05:48:53;12.77;;;3.67;;
28834;SDS011;15969;51.536;11.884;2023-03-13T05:51:19;15.77;;;3.87;;
28834;SDS011;15969;51.536;11.884;2023-03-13T05:53:45;13.83;;;3.57;;
28834;SDS011;15969;51.536;11.884;2023-03-13T05:56:10;15.20;;;3.63;;
28834;SDS011;15969;51.536;11.884;2023-03-13T05:58:36;17.97;;;3.80;;
28834;SDS011;15969;51.536;11.884;2023-03-13T06:01:06;14.50;;;3.23;;
28834;SDS011;15969;51.536;11.884;2023-03-13T06:03:36;15.20;;;4.37;;
28834;SDS011;15969;51.536;11.884;2023-03-13T06:06:02;14.07;;;3.67;;
28834;SDS011;15969;51.536;11.884;2023-03-13T06:08:28;14.37;;;3.63;;
28834;SDS011;15969;51.536;11.884;2023-03-13T06:10:53;17.33;;;3.90;;
28834;SDS011;15969;51.536;11.884;2023-03-13T06:13:23;14.93;;;4.23;;
28834;SDS011;15969;51.536;11.884;2023-03-13T06:15:55;17.73;;;3.70;;
28834;SDS011;15969;51.536;11.884;2023-03-13T06:18:22;11.60;;;3.40;;
28834;SDS011;15969;51.536;11.884;2023-03-13T06:20:48;10.70;;;3.23;;
28834;SDS011;15969;51.536;11.884;2023-03-13T06:23:20;11.70;;;3.83;;
28834;SDS011;15969;51.536;11.884;2023-03-13T06:25:46;20.23;;;4.40;;
28834;SDS011;15969;51.536;11.884;2023-03-13T06:28:12;19.87;;;3.80;;
28834;SDS011;15969;51.536;11.884;2023-03-13T06:30:38;13.80;;;3.57;;
28834;SDS011;15969;51.536;11.884;2023-03-13T06:33:04;14.17;;;3.50;;
28834;SDS011;15969;51.536;11.884;2023-03-13T06:35:30;11.77;;;3.47;;
28834;SDS011;15969;51.536;11.884;2023-03-13T06:37:56;15.87;;;4.37;;
28834;SDS011;15969;51.536;11.884;2023-03-13T06:40:21;11.17;;;3.07;;
28834;SDS011;15969;51.536;11.884;2023-03-13T06:42:47;13.03;;;3.40;;
28834;SDS011;15969;51.536;11.884;2023-03-13T06:45:13;15.17;;;3.47;;
28834;SDS011;15969;51.536;11.884;2023-03-13T06:47:38;11.77;;;3.60;;
28834;SDS011;15969;51.536;11.884;2023-03-13T06:50:04;7.97;;;3.10;;
28834;SDS011;15969;51.536;11.884;2023-03-13T06:52:30;13.23;;;3.50;;
28834;SDS011;15969;51.536;11.884;2023-03-13T06:54:56;13.27;;;3.47;;
28834;SDS011;15969;51.536;11.884;2023-03-13T06:57:21;11.70;;;3.70;;
28834;SDS011;15969;51.536;11.884;2023-03-13T06:59:47;13.83;;;3.80;;
28834;SDS011;15969;51.536;11.884;2023-03-13T07:02:13;15.30;;;3.80;;
28834;SDS011;15969;51.536;11.884;2023-03-13T07:04:40;18.47;;;4.03;;
28834;SDS011;15969;51.536;11.884;2023-03-13T07:07:05;15.23;;;3.97;;
28834;SDS011;15969;51.536;11.884;2023-03-13T07:09:31;18.40;;;5.03;;
28834;SDS011;15969;51.536;11.884;2023-03-13T07:11:57;16.67;;;4.37;;
28834;SDS011;15969;51.536;11.884;2023-03-13T07:14:23;10.17;;;3.53;;
28834;SDS011;15969;51.536;11.884;2023-03-13T07:16:49;9.03;;;3.10;;
28834;SDS011;15969;51.536;11.884;2023-03-13T07:19:15;16.40;;;3.63;;
28834;SDS011;15969;51.536;11.884;2023-03-13T07:21:41;8.50;;;3.07;;
28834;SDS011;15969;51.536;11.884;2023-03-13T07:24:08;9.47;;;3.03;;
28834;SDS011;15969;51.536;11.884;2023-03-13T07:26:33;10.90;;;3.23;;
28834;SDS011;15969;51.536;11.884;2023-03-13T07:28:59;11.20;;;3.40;;
28834;SDS011;15969;51.536;11.884;2023-03-13T07:31:25;7.80;;;2.63;;
28834;SDS011;15969;51.536;11.884;2023-03-13T07:33:52;4.73;;;1.87;;
28834;SDS011;15969;51.536;11.884;2023-03-13T07:36:20;8.60;;;2.10;;
28834;SDS011;15969;51.536;11.884;2023-03-13T07:38:55;7.07;;;2.10;;
28834;SDS011;15969;51.536;11.884;2023-03-13T07:41:21;7.13;;;2.00;;
28834;SDS011;15969;51.536;11.884;2023-03-13T07:43:47;2.10;;;1.23;;
28834;SDS011;15969;51.536;11.884;2023-03-13T07:46:14;4.10;;;1.50;;
28834;SDS011;15969;51.536;11.884;2023-03-13T07:48:45;3.37;;;1.33;;
28834;SDS011;15969;51.536;11.884;2023-03-13T07:51:13;2.03;;;1.17;;
28834;SDS011;15969;51.536;11.884;2023-03-13T07:53:44;2.27;;;1.10;;
28834;SDS011;15969;51.536;11.884;2023-03-13T07:56:14;3.37;;;1.10;;
28834;SDS011;15969;51.536;11.884;2023-03-13T07:58:43;4.30;;;1.30;;
28834;SDS011;15969;51.536;11.884;2023-03-13T08:01:10;5.07;;;1.30;;
28834;SDS011;15969;51.536;11.884;2023-03-13T08:03:44;2.93;;;1.20;;
28834;SDS011;15969;51.536;11.884;2023-03-13T08:06:13;3.63;;;1.50;;
28834;SDS011;15969;51.536;11.884;2023-03-13T08:08:41;5.37;;;1.67;;
28834;SDS011;15969;51.536;11.884;2023-03-13T08:13:45;4.40;;;1.27;;
28834;SDS011;15969;51.536;11.884;2023-03-13T08:16:14;2.43;;;1.20;;
28834;SDS011;15969;51.536;11.884;2023-03-13T08:18:50;2.40;;;1.27;;
28834;SDS011;15969;51.536;11.884;2023-03-13T08:21:19;3.97;;;1.47;;
28834;SDS011;15969;51.536;11.884;2023-03-13T08:23:53;3.47;;;1.27;;
28834;SDS011;15969;51.536;11.884;2023-03-13T08:26:24;2.20;;;1.13;;
28834;SDS011;15969;51.536;11.884;2023-03-13T08:28:53;1.67;;;1.00;;
28834;SDS011;15969;51.536;11.884;2023-03-13T08:31:22;3.03;;;1.33;;
28834;SDS011;15969;51.536;11.884;2023-03-13T08:33:53;1.37;;;1.00;;
28834;SDS011;15969;51.536;11.884;2023-03-13T08:36:32;2.17;;;1.00;;
28834;SDS011;15969;51.536;11.884;2023-03-13T08:39:01;1.10;;;0.90;;
28834;SDS011;15969;51.536;11.884;2023-03-13T08:41:47;1.33;;;0.97;;
28834;SDS011;15969;51.536;11.884;2023-03-13T08:44:14;2.47;;;1.07;;
28834;SDS011;15969;51.536;11.884;2023-03-13T08:46:41;3.47;;;1.20;;
28834;SDS011;15969;51.536;11.884;2023-03-13T08:49:08;1.40;;;0.90;;
28834;SDS011;15969;51.536;11.884;2023-03-13T08:51:34;3.23;;;0.90;;
28834;SDS011;15969;51.536;11.884;2023-03-13T08:54:01;2.10;;;0.90;;
28834;SDS011;15969;51.536;11.884;2023-03-13T08:56:28;1.30;;;0.90;;
28834;SDS011;15969;51.536;11.884;2023-03-13T08:58:56;2.13;;;0.80;;
28834;SDS011;15969;51.536;11.884;2023-03-13T09:01:26;1.23;;;0.60;;
28834;SDS011;15969;51.536;11.884;2023-03-13T09:03:54;2.73;;;0.90;;
28834;SDS011;15969;51.536;11.884;2023-03-13T09:06:20;1.47;;;0.90;;
28834;SDS011;15969;51.536;11.884;2023-03-13T09:08:46;2.60;;;0.90;;
28834;SDS011;15969;51.536;11.884;2023-03-13T09:11:13;1.27;;;0.80;;
28834;SDS011;15969;51.536;11.884;2023-03-13T09:13:47;3.03;;;0.80;;
28834;SDS011;15969;51.536;11.884;2023-03-13T09:16:18;2.13;;;0.90;;
28834;SDS011;15969;51.536;11.884;2023-03-13T09:18:47;2.03;;;0.97;;
28834;SDS011;15969;51.536;11.884;2023-03-13T09:21:14;1.57;;;0.80;;
28834;SDS011;15969;51.536;11.884;2023-03-13T09:23:45;1.80;;;0.90;;
28834;SDS011;15969;51.536;11.884;2023-03-13T09:26:11;1.57;;;0.70;;
28834;SDS011;15969;51.536;11.884;2023-03-13T09:28:38;2.10;;;0.93;;
28834;SDS011;15969;51.536;11.884;2023-03-13T09:31:09;1.40;;;0.90;;
28834;SDS011;15969;51.536;11.884;2023-03-13T09:33:37;0.90;;;0.70;;
28834;SDS011;15969;51.536;11.884;2023-03-13T09:36:03;1.87;;;0.80;;
28834;SDS011;15969;51.536;11.884;2023-03-13T09:38:29;1.67;;;0.80;;
28834;SDS011;15969;51.536;11.884;2023-03-13T09:40:59;1.60;;;1.00;;
28834;SDS011;15969;51.536;11.884;2023-03-13T09:43:50;1.00;;;0.90;;
28834;SDS011;15969;51.536;11.884;2023-03-13T09:49:33;3.20;;;1.10;;
28834;SDS011;15969;51.536;11.884;2023-03-13T09:52:10;2.30;;;1.17;;
28834;SDS011;15969;51.536;11.884;2023-03-13T09:55:02;1.03;;;0.80;;
28834;SDS011;15969;51.536;11.884;2023-03-13T09:57:39;1.77;;;0.70;;
28834;SDS011;15969;51.536;11.884;2023-03-13T10:00:33;1.60;;;1.03;;
28834;SDS011;15969;51.536;11.884;2023-03-13T10:03:13;1.00;;;0.70;;
28834;SDS011;15969;51.536;11.884;2023-03-13T10:05:46;1.53;;;0.90;;
28834;SDS011;15969;51.536;11.884;2023-03-13T10:08:32;1.43;;;0.70;;
28834;SDS011;15969;51.536;11.884;2023-03-13T10:13:36;1.67;;;0.80;;
28834;SDS011;15969;51.536;11.884;2023-03-13T10:16:40;0.83;;;0.60;;
28834;SDS011;15969;51.536;11.884;2023-03-13T10:19:22;1.67;;;0.70;;
28834;SDS011;15969;51.536;11.884;2023-03-13T10:21:56;1.00;;;0.80;;
28834;SDS011;15969;51.536;11.884;2023-03-13T10:24:29;1.40;;;0.90;;
28834;SDS011;15969;51.536;11.884;2023-03-13T10:27:10;1.27;;;0.60;;
28834;SDS011;15969;51.536;11.884;2023-03-13T10:29:39;1.37;;;0.83;;
28834;SDS011;15969;51.536;11.884;2023-03-13T10:32:05;1.60;;;1.00;;
28834;SDS011;15969;51.536;11.884;2023-03-13T10:34:50;0.97;;;0.70;;
28834;SDS011;15969;51.536;11.884;2023-03-13T10:37:22;2.37;;;1.03;;
28834;SDS011;15969;51.536;11.884;2023-03-13T10:39:51;1.43;;;0.70;;
28834;SDS011;15969;51.536;11.884;2023-03-13T10:42:22;1.60;;;0.80;;
28834;SDS011;15969;51.536;11.884;2023-03-13T10:44:57;2.45;;;1.10;;
28834;SDS011;15969;51.536;11.884;2023-03-13T10:47:25;1.70;;;0.90;;
28834;SDS011;15969;51.536;11.884;2023-03-13T10:49:55;1.27;;;0.90;;
28834;SDS011;15969;51.536;11.884;2023-03-13T10:52:32;1.10;;;1.00;;
28834;SDS011;15969;51.536;11.884;2023-03-13T10:55:09;1.37;;;1.10;;
28834;SDS011;15969;51.536;11.884;2023-03-13T10:57:56;1.97;;;1.00;;
28834;SDS011;15969;51.536;11.884;2023-03-13T11:02:55;1.10;;;1.00;;
28834;SDS011;15969;51.536;11.884;2023-03-13T11:07:52;2.40;;;1.10;;
28834;SDS011;15969;51.536;11.884;2023-03-13T11:10:24;1.33;;;1.10;;
28834;SDS011;15969;51.536;11.884;2023-03-13T11:13:01;2.43;;;1.20;;
28834;SDS011;15969;51.536;11.884;2023-03-13T11:15:30;4.30;;;1.50;;
28834;SDS011;15969;51.536;11.884;2023-03-13T11:18:27;1.97;;;1.20;;
28834;SDS011;15969;51.536;11.884;2023-03-13T11:21:22;1.13;;;1.03;;
28834;SDS011;15969;51.536;11.884;2023-03-13T11:23:57;1.53;;;1.10;;
28834;SDS011;15969;51.536;11.884;2023-03-13T11:26:36;1.57;;;1.17;;
28834;SDS011;15969;51.536;11.884;2023-03-13T11:32:06;1.30;;;1.20;;
28834;SDS011;15969;51.536;11.884;2023-03-13T11:34:49;3.73;;;1.20;;
28834;SDS011;15969;51.536;11.884;2023-03-13T11:37:20;2.73;;;2.23;;
28834;SDS011;15969;51.536;11.884;2023-03-13T11:42:51;2.53;;;1.27;;
28834;SDS011;15969;51.536;11.884;2023-03-13T11:45:46;1.20;;;1.10;;
28834;SDS011;15969;51.536;11.884;2023-03-13T11:51:49;1.50;;;1.37;;
28834;SDS011;15969;51.536;11.884;2023-03-13T11:57:17;4.33;;;1.60;;
28834;SDS011;15969;51.536;11.884;2023-03-13T12:02:55;1.37;;;1.23;;
28834;SDS011;15969;51.536;11.884;2023-03-13T12:05:37;3.27;;;1.43;;
28834;SDS011;15969;51.536;11.884;2023-03-13T12:08:18;2.03;;;1.53;;
28834;SDS011;15969;51.536;11.884;2023-03-13T12:10:59;3.27;;;1.37;;
28834;SDS011;15969;51.536;11.884;2023-03-13T12:13:51;1.10;;;1.00;;
28834;SDS011;15969;51.536;11.884;2023-03-13T12:19:25;1.70;;;1.20;;
28834;SDS011;15969;51.536;11.884;2023-03-13T12:22:06;2.63;;;1.50;;
28834;SDS011;15969;51.536;11.884;2023-03-13T12:25:01;2.23;;;1.20;;
28834;SDS011;15969;51.536;11.884;2023-03-13T12:27:36;1.93;;;1.20;;
28834;SDS011;15969;51.536;11.884;2023-03-13T12:33:12;2.43;;;1.30;;
28834;SDS011;15969;51.536;11.884;2023-03-13T12:38:38;3.40;;;1.40;;
28834;SDS011;15969;51.536;11.884;2023-03-13T12:41:27;1.67;;;1.37;;
28834;SDS011;15969;51.536;11.884;2023-03-13T12:44:10;3.90;;;1.40;;
28834;SDS011;15969;51.536;11.884;2023-03-13T12:46:56;2.40;;;1.30;;
28834;SDS011;15969;51.536;11.884;2023-03-13T12:49:43;2.77;;;1.23;;
28834;SDS011;15969;51.536;11.884;2023-03-13T12:58:36;4.13;;;1.40;;
28834;SDS011;15969;51.536;11.884;2023-03-13T13:01:06;1.30;;;1.00;;
28834;SDS011;15969;51.536;11.884;2023-03-13T13:06:17;2.23;;;1.40;;
28834;SDS011;15969;51.536;11.884;2023-03-13T13:08:45;3.73;;;1.20;;
28834;SDS011;15969;51.536;11.884;2023-03-13T13:16:47;1.90;;;1.40;;
28834;SDS011;15969;51.536;11.884;2023-03-13T13:25:00;1.40;;;1.13;;
28834;SDS011;15969;51.536;11.884;2023-03-13T13:37:37;1.73;;;1.27;;
28834;SDS011;15969;51.536;11.884;2023-03-13T13:42:51;2.33;;;1.50;;
28834;SDS011;15969;51.536;11.884;2023-03-13T13:45:27;1.30;;;1.20;;
28834;SDS011;15969;51.536;11.884;2023-03-13T13:53:41;3.57;;;1.30;;
28834;SDS011;15969;51.536;11.884;2023-03-13T13:58:55;1.93;;;1.30;;
28834;SDS011;15969;51.536;11.884;2023-03-13T14:01:24;1.67;;;1.20;;
28834;SDS011;15969;51.536;11.884;2023-03-13T14:03:50;2.83;;;1.20;;
28834;SDS011;15969;51.536;11.884;2023-03-13T14:06:23;1.93;;;1.20;;
28834;SDS011;15969;51.536;11.884;2023-03-13T14:08:58;2.13;;;1.20;;
28834;SDS011;15969;51.536;11.884;2023-03-13T14:11:38;1.20;;;1.10;;
28834;SDS011;15969;51.536;11.884;2023-03-13T14:14:07;4.50;;;1.60;;
28834;SDS011;15969;51.536;11.884;2023-03-13T14:16:42;3.37;;;1.40;;
28834;SDS011;15969;51.536;11.884;2023-03-13T14:22:03;1.30;;;1.10;;
28834;SDS011;15969;51.536;11.884;2023-03-13T14:24:32;1.43;;;1.20;;
28834;SDS011;15969;51.536;11.884;2023-03-13T14:26:59;1.33;;;1.17;;
28834;SDS011;15969;51.536;11.884;2023-03-13T14:29:25;1.80;;;1.60;;
28834;SDS011;15969;51.536;11.884;2023-03-13T14:31:52;2.50;;;1.03;;
28834;SDS011;15969;51.536;11.884;2023-03-13T14:34:20;3.43;;;1.13;;
28834;SDS011;15969;51.536;11.884;2023-03-13T14:36:53;3.63;;;1.20;;
28834;SDS011;15969;51.536;11.884;2023-03-13T14:39:35;2.47;;;1.43;;
28834;SDS011;15969;51.536;11.884;2023-03-13T14:42:09;2.77;;;1.23;;
28834;SDS011;15969;51.536;11.884;2023-03-13T14:44:37;1.60;;;1.07;;
28834;SDS011;15969;51.536;11.884;2023-03-13T14:47:06;1.27;;;1.07;;
28834;SDS011;15969;51.536;11.884;2023-03-13T14:49:45;3.13;;;1.23;;
28834;SDS011;15969;51.536;11.884;2023-03-13T14:52:32;2.00;;;0.97;;
28834;SDS011;15969;51.536;11.884;2023-03-13T14:54:58;2.37;;;1.30;;
28834;SDS011;15969;51.536;11.884;2023-03-13T14:57:28;1.33;;;1.03;;
28834;SDS011;15969;51.536;11.884;2023-03-13T14:59:55;2.13;;;1.30;;
28834;SDS011;15969;51.536;11.884;2023-03-13T15:05:44;1.53;;;1.13;;
28834;SDS011;15969;51.536;11.884;2023-03-13T15:08:14;2.57;;;1.00;;
28834;SDS011;15969;51.536;11.884;2023-03-13T15:10:45;3.07;;;1.20;;
28834;SDS011;15969;51.536;11.884;2023-03-13T15:13:24;1.70;;;1.23;;
28834;SDS011;15969;51.536;11.884;2023-03-13T15:15:57;1.20;;;1.00;;
28834;SDS011;15969;51.536;11.884;2023-03-13T15:18:25;2.47;;;1.17;;
28834;SDS011;15969;51.536;11.884;2023-03-13T15:20:56;2.10;;;1.17;;
28834;SDS011;15969;51.536;11.884;2023-03-13T15:23:34;2.07;;;1.53;;
28834;SDS011;15969;51.536;11.884;2023-03-13T15:26:00;2.13;;;1.10;;
28834;SDS011;15969;51.536;11.884;2023-03-13T15:28:26;0.80;;;0.80;;
28834;SDS011;15969;51.536;11.884;2023-03-13T15:30:53;3.70;;;2.17;;
28834;SDS011;15969;51.536;11.884;2023-03-13T15:33:19;4.03;;;1.17;;
28834;SDS011;15969;51.536;11.884;2023-03-13T15:35:49;1.10;;;0.93;;
28834;SDS011;15969;51.536;11.884;2023-03-13T15:38:16;1.63;;;1.23;;
28834;SDS011;15969;51.536;11.884;2023-03-13T15:40:47;2.67;;;1.27;;
28834;SDS011;15969;51.536;11.884;2023-03-13T15:43:13;0.83;;;0.83;;
28834;SDS011;15969;51.536;11.884;2023-03-13T15:45:40;1.10;;;1.00;;
28834;SDS011;15969;51.536;11.884;2023-03-13T15:48:15;1.13;;;1.00;;
28834;SDS011;15969;51.536;11.884;2023-03-13T15:50:47;1.07;;;0.90;;
28834;SDS011;15969;51.536;11.884;2023-03-13T15:53:20;1.53;;;1.00;;
28834;SDS011;15969;51.536;11.884;2023-03-13T15:55:53;1.53;;;1.00;;
28834;SDS011;15969;51.536;11.884;2023-03-13T15:58:23;2.50;;;1.37;;
28834;SDS011;15969;51.536;11.884;2023-03-13T16:00:50;1.00;;;0.90;;
28834;SDS011;15969;51.536;11.884;2023-03-13T16:03:17;2.43;;;1.10;;
28834;SDS011;15969;51.536;11.884;2023-03-13T16:05:46;2.10;;;1.20;;
28834;SDS011;15969;51.536;11.884;2023-03-13T16:08:19;0.90;;;0.90;;
28834;SDS011;15969;51.536;11.884;2023-03-13T16:10:51;3.83;;;1.13;;
28834;SDS011;15969;51.536;11.884;2023-03-13T16:13:17;1.73;;;1.30;;
28834;SDS011;15969;51.536;11.884;2023-03-13T16:15:43;3.23;;;1.33;;
28834;SDS011;15969;51.536;11.884;2023-03-13T16:18:12;1.50;;;1.23;;
28834;SDS011;15969;51.536;11.884;2023-03-13T16:20:45;1.27;;;1.17;;
28834;SDS011;15969;51.536;11.884;2023-03-13T16:23:11;2.00;;;1.30;;